createdAt,value
2023-05-09T00:00:19.613Z,95223.00
2023-05-09T00:01:19.660Z,95225.00
2023-05-09T00:02:19.752Z,95217.00
2023-05-09T00:03:19.759Z,95215.00
2023-05-09T00:04:19.867Z,95221.00
2023-05-09T00:05:19.839Z,95213.00
2023-05-09T00:06:19.933Z,95213.00
2023-05-09T00:07:19.802Z,95213.00
2023-05-09T00:08:19.865Z,95219.00
2023-05-09T00:09:19.859Z,95211.00
2023-05-09T00:10:19.941Z,95213.00
2023-05-09T00:11:19.919Z,95211.00
2023-05-09T00:12:19.954Z,95207.00
2023-05-09T00:13:20.063Z,95205.00
2023-05-09T00:14:20.004Z,95201.00
2023-05-09T00:15:20.052Z,95199.00
2023-05-09T00:16:20.116Z,95201.00
2023-05-09T00:17:20.108Z,95197.00
2023-05-09T00:18:20.155Z,95199.00
2023-05-09T00:19:20.160Z,95195.00
2023-05-09T00:20:20.193Z,95197.00
2023-05-09T00:21:20.329Z,95197.00
2023-05-09T00:22:20.314Z,95193.00
2023-05-09T00:23:20.343Z,95195.00
2023-05-09T00:24:20.386Z,95197.00
2023-05-09T00:25:20.440Z,95197.00
2023-05-09T00:26:20.494Z,95199.00
2023-05-09T00:27:20.555Z,95201.00
2023-05-09T00:28:20.618Z,95201.00
2023-05-09T00:29:20.630Z,95197.00
2023-05-09T00:30:20.672Z,95199.00
2023-05-09T00:31:20.667Z,95197.00
2023-05-09T00:32:20.760Z,95193.00
2023-05-09T00:33:20.766Z,95193.00
2023-05-09T00:34:20.801Z,95191.00
2023-05-09T00:35:20.809Z,95195.00
2023-05-09T00:36:20.882Z,95193.00
2023-05-09T00:37:20.978Z,95191.00
2023-05-09T00:38:20.916Z,95191.00
2023-05-09T00:39:20.997Z,95190.00
2023-05-09T00:40:21.017Z,95190.00
2023-05-09T00:41:21.008Z,95190.00
2023-05-09T00:42:21.052Z,95191.00
2023-05-09T00:43:21.081Z,95188.00
2023-05-09T00:44:21.147Z,95188.00
2023-05-09T00:45:21.146Z,95188.00
2023-05-09T00:46:21.234Z,95186.00
2023-05-09T00:47:21.290Z,95186.00
2023-05-09T00:48:21.222Z,95184.00
2023-05-09T00:49:21.278Z,95184.00
2023-05-09T00:50:21.286Z,95182.00
2023-05-09T00:51:21.359Z,95182.00
2023-05-09T00:52:21.407Z,95180.00
2023-05-09T00:53:21.468Z,95180.00
2023-05-09T00:54:21.407Z,95176.00
2023-05-09T00:55:21.443Z,95180.00
2023-05-09T00:56:21.461Z,95176.00
2023-05-09T00:57:21.590Z,95172.00
2023-05-09T00:58:21.546Z,95172.00
2023-05-09T00:59:21.600Z,95174.00
2023-05-09T01:00:21.917Z,95172.00
2023-05-09T01:01:21.777Z,95172.00
2023-05-09T01:02:21.814Z,95172.00
2023-05-09T01:03:21.852Z,95172.00
2023-05-09T01:04:21.799Z,95172.00
2023-05-09T01:05:21.798Z,95172.00
2023-05-09T01:06:21.838Z,95168.00
2023-05-09T01:07:22.057Z,95170.00
2023-05-09T01:08:21.930Z,95168.00
2023-05-09T01:09:22.057Z,95168.00
2023-05-09T01:10:21.997Z,95160.00
2023-05-09T01:11:22.080Z,95158.00
2023-05-09T01:12:22.154Z,95156.00
2023-05-09T01:13:22.261Z,95158.00
2023-05-09T01:14:22.211Z,95158.00
2023-05-09T01:15:22.228Z,95158.00
2023-05-09T01:16:22.304Z,95156.00
2023-05-09T01:17:22.336Z,95156.00
2023-05-09T01:18:22.407Z,95158.00
2023-05-09T01:19:22.450Z,95156.00
2023-05-09T01:20:22.523Z,95154.00
2023-05-09T01:21:22.554Z,95154.00
2023-05-09T01:22:22.600Z,95150.00
2023-05-09T01:23:22.650Z,95150.00
2023-05-09T01:24:22.699Z,95146.00
2023-05-09T01:25:22.789Z,95146.00
2023-05-09T01:26:22.750Z,95148.00
2023-05-09T01:27:22.797Z,95146.00
2023-05-09T01:28:22.824Z,95146.00
2023-05-09T01:29:22.890Z,95146.00
2023-05-09T01:30:22.925Z,95148.00
2023-05-09T01:31:23.025Z,95148.00
2023-05-09T01:32:23.116Z,95152.00
2023-05-09T01:33:23.120Z,95150.00
2023-05-09T01:34:23.159Z,95150.00
2023-05-09T01:35:23.232Z,95150.00
2023-05-09T01:36:23.254Z,95150.00
2023-05-09T01:37:23.342Z,95150.00
2023-05-09T01:38:23.376Z,95150.00
2023-05-09T01:39:23.463Z,95150.00
2023-05-09T01:40:23.510Z,95150.00
2023-05-09T01:41:23.644Z,95148.00
2023-05-09T01:42:23.520Z,95148.00
2023-05-09T01:43:23.607Z,95148.00
2023-05-09T01:44:23.639Z,95148.00
2023-05-09T01:45:23.690Z,95148.00
2023-05-09T01:46:23.721Z,95148.00
2023-05-09T01:47:23.717Z,95148.00
2023-05-09T01:48:23.744Z,95146.00
2023-05-09T01:49:23.774Z,95150.00
2023-05-09T01:50:23.860Z,95146.00
2023-05-09T01:51:23.870Z,95144.00
2023-05-09T01:52:23.882Z,95148.00
2023-05-09T01:53:23.902Z,95142.00
2023-05-09T01:54:23.940Z,95144.00
2023-05-09T01:55:24.006Z,95146.00
2023-05-09T01:56:24.053Z,95144.00
2023-05-09T01:57:24.149Z,95142.00
2023-05-09T01:58:24.128Z,95142.00
2023-05-09T01:59:24.158Z,95144.00
2023-05-09T02:00:24.249Z,95142.00
2023-05-09T02:01:24.398Z,95142.00
2023-05-09T02:02:24.472Z,95140.00
2023-05-09T02:03:24.433Z,95142.00
2023-05-09T02:04:24.414Z,95140.00
2023-05-09T02:05:24.452Z,95138.00
2023-05-09T02:06:24.495Z,95138.00
2023-05-09T02:07:24.547Z,95137.00
2023-05-09T02:08:24.536Z,95137.00
2023-05-09T02:09:24.609Z,95138.00
2023-05-09T02:10:24.618Z,95137.00
2023-05-09T02:11:24.704Z,95135.00
2023-05-09T02:12:24.699Z,95137.00
2023-05-09T02:13:24.932Z,95138.00
2023-05-09T02:14:24.757Z,95138.00
2023-05-09T02:15:24.811Z,95137.00
2023-05-09T02:16:24.886Z,95135.00
2023-05-09T02:17:24.888Z,95135.00
2023-05-09T02:18:24.927Z,95133.00
2023-05-09T02:19:24.916Z,95131.00
2023-05-09T02:20:24.955Z,95129.00
2023-05-09T02:21:25.894Z,95131.00
2023-05-09T02:22:25.041Z,95131.00
2023-05-09T02:23:25.040Z,95129.00
2023-05-09T02:24:25.081Z,95129.00
2023-05-09T02:25:25.136Z,95129.00
2023-05-09T02:26:25.175Z,95129.00
2023-05-09T02:27:25.179Z,95129.00
2023-05-09T02:28:25.224Z,95127.00
2023-05-09T02:29:25.368Z,95127.00
2023-05-09T02:30:25.502Z,95125.00
2023-05-09T02:31:25.359Z,95125.00
2023-05-09T02:32:25.362Z,95125.00
2023-05-09T02:33:25.381Z,95123.00
2023-05-09T02:34:25.412Z,95123.00
2023-05-09T02:35:25.469Z,95121.00
2023-05-09T02:36:25.502Z,95121.00
2023-05-09T02:37:25.570Z,95121.00
2023-05-09T02:38:25.556Z,95119.00
2023-05-09T02:39:25.634Z,95117.00
2023-05-09T02:40:25.639Z,95117.00
2023-05-09T02:41:25.724Z,95117.00
2023-05-09T02:42:25.716Z,95117.00
2023-05-09T02:43:25.766Z,95121.00
2023-05-09T02:44:25.776Z,95117.00
2023-05-09T02:45:25.958Z,95119.00
2023-05-09T02:46:25.979Z,95119.00
2023-05-09T02:47:25.930Z,95119.00
2023-05-09T02:48:25.941Z,95117.00
2023-05-09T02:49:31.883Z,95115.00
2023-05-09T02:50:27.008Z,95115.00
2023-05-09T02:51:25.956Z,95115.00
2023-05-09T02:52:25.951Z,95115.00
2023-05-09T02:53:25.943Z,95113.00
2023-05-09T02:54:25.956Z,95115.00
2023-05-09T02:55:25.943Z,95113.00
2023-05-09T02:56:25.968Z,95111.00
2023-05-09T02:57:25.921Z,95111.00
2023-05-09T02:58:25.935Z,95111.00
2023-05-09T02:59:25.907Z,95111.00
2023-05-09T03:00:25.932Z,95111.00
2023-05-09T03:01:26.130Z,95111.00
2023-05-09T03:02:26.060Z,95107.00
2023-05-09T03:03:26.071Z,95111.00
2023-05-09T03:04:26.058Z,95109.00
2023-05-09T03:05:26.129Z,95105.00
2023-05-09T03:06:26.133Z,95107.00
2023-05-09T03:07:26.225Z,95105.00
2023-05-09T03:08:26.218Z,95105.00
2023-05-09T03:09:26.251Z,95103.00
2023-05-09T03:10:26.266Z,95107.00
2023-05-09T03:11:26.341Z,95105.00
2023-05-09T03:12:26.391Z,95103.00
2023-05-09T03:13:26.499Z,95105.00
2023-05-09T03:14:26.456Z,95103.00
2023-05-09T03:15:26.618Z,95105.00
2023-05-09T03:16:26.632Z,95103.00
2023-05-09T03:17:26.705Z,95103.00
2023-05-09T03:18:26.659Z,95101.00
2023-05-09T03:19:26.656Z,95101.00
2023-05-09T03:20:26.702Z,95101.00
2023-05-09T03:21:26.754Z,95101.00
2023-05-09T03:22:26.861Z,95101.00
2023-05-09T03:23:26.928Z,95101.00
2023-05-09T03:24:26.962Z,95099.00
2023-05-09T03:25:27.060Z,95099.00
2023-05-09T03:26:27.093Z,95099.00
2023-05-09T03:27:27.157Z,95101.00
2023-05-09T03:28:27.166Z,95099.00
2023-05-09T03:29:27.232Z,95101.00
2023-05-09T03:30:27.290Z,95103.00
2023-05-09T03:31:27.305Z,95101.00
2023-05-09T03:32:27.434Z,95101.00
2023-05-09T03:33:27.497Z,95101.00
2023-05-09T03:34:27.446Z,95101.00
2023-05-09T03:35:27.494Z,95101.00
2023-05-09T03:36:27.570Z,95101.00
2023-05-09T03:37:27.607Z,95099.00
2023-05-09T03:38:27.683Z,95099.00
2023-05-09T03:39:27.715Z,95097.00
2023-05-09T03:40:27.767Z,95103.00
2023-05-09T03:41:27.806Z,95101.00
2023-05-09T03:42:27.889Z,95097.00
2023-05-09T03:43:27.888Z,95103.00
2023-05-09T03:44:27.934Z,95101.00
2023-05-09T03:45:27.983Z,95099.00
2023-05-09T03:46:28.052Z,95097.00
2023-05-09T03:47:28.138Z,95095.00
2023-05-09T03:48:28.122Z,95095.00
2023-05-09T03:49:28.215Z,95095.00
2023-05-09T03:50:28.174Z,95093.00
2023-05-09T03:51:28.226Z,95093.00
2023-05-09T03:52:28.251Z,95093.00
2023-05-09T03:53:28.307Z,95093.00
2023-05-09T03:54:28.351Z,95093.00
2023-05-09T03:55:28.392Z,95095.00
2023-05-09T03:56:28.415Z,95099.00
2023-05-09T03:57:28.529Z,95095.00
2023-05-09T03:58:28.497Z,95095.00
2023-05-09T03:59:28.620Z,95097.00
2023-05-09T04:00:28.582Z,95095.00
2023-05-09T04:01:28.623Z,95095.00
2023-05-09T04:02:28.768Z,95097.00
2023-05-09T04:03:28.802Z,95097.00
2023-05-09T04:04:28.811Z,95095.00
2023-05-09T04:05:28.941Z,95095.00
2023-05-09T04:06:28.902Z,95097.00
2023-05-09T04:07:28.942Z,95095.00
2023-05-09T04:08:28.991Z,95099.00
2023-05-09T04:09:29.046Z,95097.00
2023-05-09T04:10:29.096Z,95097.00
2023-05-09T04:11:29.149Z,95097.00
2023-05-09T04:12:29.171Z,95099.00
2023-05-09T04:13:29.274Z,95101.00
2023-05-09T04:14:29.222Z,95099.00
2023-05-09T04:15:29.347Z,95101.00
2023-05-09T04:16:29.368Z,95099.00
2023-05-09T04:17:29.371Z,95099.00
2023-05-09T04:18:29.403Z,95099.00
2023-05-09T04:19:29.427Z,95099.00
2023-05-09T04:20:29.445Z,95097.00
2023-05-09T04:21:29.578Z,95099.00
2023-05-09T04:22:29.532Z,95099.00
2023-05-09T04:23:29.571Z,95095.00
2023-05-09T04:24:29.579Z,95095.00
2023-05-09T04:25:29.615Z,95097.00
2023-05-09T04:26:29.634Z,95099.00
2023-05-09T04:27:29.702Z,95097.00
2023-05-09T04:28:29.738Z,95101.00
2023-05-09T04:29:29.751Z,95099.00
2023-05-09T04:30:29.796Z,95103.00
2023-05-09T04:31:29.886Z,95101.00
2023-05-09T04:32:29.918Z,95101.00
2023-05-09T04:33:29.968Z,95105.00
2023-05-09T04:34:30.046Z,95105.00
2023-05-09T04:35:30.095Z,95103.00
2023-05-09T04:36:30.131Z,95105.00
2023-05-09T04:37:30.229Z,95105.00
2023-05-09T04:38:30.208Z,95101.00
2023-05-09T04:39:30.249Z,95101.00
2023-05-09T04:40:30.336Z,95103.00
2023-05-09T04:41:30.339Z,95099.00
2023-05-09T04:42:30.404Z,95099.00
2023-05-09T04:43:30.450Z,95097.00
2023-05-09T04:44:30.520Z,95095.00
2023-05-09T04:45:30.551Z,95095.00
2023-05-09T04:46:30.642Z,95095.00
2023-05-09T04:47:30.664Z,95095.00
2023-05-09T04:48:30.645Z,95095.00
2023-05-09T04:49:30.718Z,95093.00
2023-05-09T04:50:30.761Z,95095.00
2023-05-09T04:51:30.827Z,95093.00
2023-05-09T04:52:30.893Z,95093.00
2023-05-09T04:53:31.018Z,95091.00
2023-05-09T04:54:30.996Z,95090.00
2023-05-09T04:55:31.037Z,95091.00
2023-05-09T04:56:31.112Z,95091.00
2023-05-09T04:57:31.137Z,95093.00
2023-05-09T04:58:31.220Z,95090.00
2023-05-09T04:59:31.222Z,95093.00
2023-05-09T05:00:31.243Z,95093.00
2023-05-09T05:01:31.369Z,95093.00
2023-05-09T05:02:31.383Z,95093.00
2023-05-09T05:03:31.418Z,95093.00
2023-05-09T05:04:31.429Z,95091.00
2023-05-09T05:05:33.683Z,95091.00
2023-05-09T05:06:31.475Z,95093.00
2023-05-09T05:07:31.448Z,95093.00
2023-05-09T05:08:31.452Z,95093.00
2023-05-09T05:09:31.556Z,95093.00
2023-05-09T05:10:31.422Z,95093.00
2023-05-09T05:11:31.387Z,95091.00
2023-05-09T05:12:31.390Z,95090.00
2023-05-09T05:13:31.398Z,95088.00
2023-05-09T05:14:31.390Z,95086.00
2023-05-09T05:15:31.401Z,95088.00
2023-05-09T05:16:31.402Z,95084.00
2023-05-09T05:17:31.426Z,95084.00
2023-05-09T05:18:31.368Z,95086.00
2023-05-09T05:19:31.364Z,95084.00
2023-05-09T05:20:31.378Z,95086.00
2023-05-09T05:21:31.332Z,95084.00
2023-05-09T05:22:32.793Z,95084.00
2023-05-09T05:23:31.341Z,95086.00
2023-05-09T05:24:31.351Z,95086.00
2023-05-09T05:25:31.403Z,95084.00
2023-05-09T05:26:31.303Z,95082.00
2023-05-09T05:27:31.337Z,95086.00
2023-05-09T05:28:31.332Z,95084.00
2023-05-09T05:29:31.264Z,95084.00
2023-05-09T05:30:34.008Z,95086.00
2023-05-09T05:31:31.281Z,95086.00
2023-05-09T05:32:31.318Z,95086.00
2023-05-09T05:33:31.985Z,95086.00
2023-05-09T05:34:31.313Z,95088.00
2023-05-09T05:35:31.285Z,95090.00
2023-05-09T05:36:31.242Z,95090.00
2023-05-09T05:37:31.247Z,95090.00
2023-05-09T05:38:31.246Z,95095.00
2023-05-09T05:39:31.202Z,95095.00
2023-05-09T05:40:31.558Z,95097.00
2023-05-09T05:41:31.291Z,95095.00
2023-05-09T05:42:31.198Z,95093.00
2023-05-09T05:43:31.176Z,95095.00
2023-05-09T05:44:31.171Z,95095.00
2023-05-09T05:45:31.244Z,95119.00
2023-05-09T05:46:31.153Z,95115.00
2023-05-09T05:47:31.207Z,95119.00
2023-05-09T05:48:31.168Z,95115.00
2023-05-09T05:49:31.183Z,95091.00
2023-05-09T05:50:31.209Z,95093.00
2023-05-09T05:51:31.118Z,95091.00
2023-05-09T05:52:31.128Z,95095.00
2023-05-09T05:53:32.696Z,95091.00
2023-05-09T05:54:31.132Z,95091.00
2023-05-09T05:55:31.560Z,95091.00
2023-05-09T05:56:31.130Z,95091.00
2023-05-09T05:57:31.128Z,95088.00
2023-05-09T05:58:31.089Z,95088.00
2023-05-09T05:59:31.108Z,95091.00
2023-05-09T06:00:31.142Z,95091.00
2023-05-09T06:01:31.099Z,95091.00
2023-05-09T06:02:31.149Z,95090.00
2023-05-09T06:03:31.155Z,95088.00
2023-05-09T06:04:31.031Z,95090.00
2023-05-09T06:05:31.051Z,95086.00
2023-05-09T06:06:31.021Z,95086.00
2023-05-09T06:07:31.020Z,95088.00
2023-05-09T06:08:31.047Z,95080.00
2023-05-09T06:09:30.986Z,95082.00
2023-05-09T06:10:31.033Z,95082.00
2023-05-09T06:11:31.022Z,95078.00
2023-05-09T06:12:31.488Z,95080.00
2023-05-09T06:13:31.110Z,95080.00
2023-05-09T06:14:30.959Z,95082.00
2023-05-09T06:15:30.979Z,95078.00
2023-05-09T06:16:31.001Z,95080.00
2023-05-09T06:17:30.970Z,95082.00
2023-05-09T06:18:31.061Z,95080.00
2023-05-09T06:19:30.930Z,95078.00
2023-05-09T06:20:30.944Z,95082.00
2023-05-09T06:21:30.977Z,95074.00
2023-05-09T06:22:30.931Z,95078.00
2023-05-09T06:23:30.929Z,95078.00
2023-05-09T06:24:35.731Z,95074.00
2023-05-09T06:25:31.882Z,95078.00
2023-05-09T06:26:30.906Z,95080.00
2023-05-09T06:27:30.867Z,95080.00
2023-05-09T06:28:30.900Z,95078.00
2023-05-09T06:29:31.041Z,95080.00
2023-05-09T06:30:30.864Z,95078.00
2023-05-09T06:31:30.949Z,95076.00
2023-05-09T06:32:30.950Z,95076.00
2023-05-09T06:33:30.873Z,95074.00
2023-05-09T06:34:30.867Z,95070.00
2023-05-09T06:35:31.083Z,95072.00
2023-05-09T06:36:30.852Z,95070.00
2023-05-09T06:37:30.928Z,95062.00
2023-05-09T06:38:30.825Z,95066.00
2023-05-09T06:39:30.793Z,95064.00
2023-05-09T06:40:30.797Z,95064.00
2023-05-09T06:41:30.842Z,95068.00
2023-05-09T06:42:30.778Z,95066.00
2023-05-09T06:43:30.804Z,95064.00
2023-05-09T06:44:30.832Z,95062.00
2023-05-09T06:45:30.953Z,95064.00
2023-05-09T06:46:30.811Z,95060.00
2023-05-09T06:47:30.829Z,95060.00
2023-05-09T06:48:30.757Z,95082.00
2023-05-09T06:49:30.782Z,95084.00
2023-05-09T06:50:32.770Z,95082.00
2023-05-09T06:51:30.744Z,95086.00
2023-05-09T06:52:30.781Z,95084.00
2023-05-09T06:53:30.762Z,95084.00
2023-05-09T06:54:30.799Z,95082.00
2023-05-09T06:55:30.816Z,95082.00
2023-05-09T06:56:30.818Z,95060.00
2023-05-09T06:57:30.812Z,95080.00
2023-05-09T06:58:31.104Z,95078.00
2023-05-09T06:59:30.845Z,95076.00
2023-05-09T07:00:31.042Z,95078.00
2023-05-09T07:01:30.988Z,95076.00
2023-05-09T07:02:30.925Z,95074.00
2023-05-09T07:03:30.906Z,95078.00
2023-05-09T07:04:30.944Z,95078.00
2023-05-09T07:05:30.999Z,95078.00
2023-05-09T07:06:30.916Z,95078.00
2023-05-09T07:07:30.932Z,95076.00
2023-05-09T07:08:30.955Z,95076.00
2023-05-09T07:09:31.522Z,95074.00
2023-05-09T07:10:31.056Z,95074.00
2023-05-09T07:11:31.073Z,95074.00
2023-05-09T07:12:31.095Z,95072.00
2023-05-09T07:13:31.071Z,95072.00
2023-05-09T07:14:31.087Z,95072.00
2023-05-09T07:15:41.397Z,95072.00
2023-05-09T07:16:32.104Z,95070.00
2023-05-09T07:17:31.147Z,95072.00
2023-05-09T07:18:31.075Z,95070.00
2023-05-09T07:19:31.031Z,95068.00
2023-05-09T07:20:31.033Z,95066.00
2023-05-09T07:21:31.036Z,95064.00
2023-05-09T07:22:32.129Z,95066.00
2023-05-09T07:23:31.012Z,95062.00
2023-05-09T07:24:31.061Z,95062.00
2023-05-09T07:25:31.566Z,95060.00
2023-05-09T07:26:31.167Z,95060.00
2023-05-09T07:27:31.207Z,95060.00
2023-05-09T07:28:31.273Z,95058.00
2023-05-09T07:29:31.321Z,95056.00
2023-05-09T07:30:31.429Z,95060.00
2023-05-09T07:31:31.439Z,95058.00
2023-05-09T07:32:31.557Z,95060.00
2023-05-09T07:33:31.618Z,95056.00
2023-05-09T07:34:31.561Z,95060.00
2023-05-09T07:35:32.055Z,95054.00
2023-05-09T07:36:33.620Z,95054.00
2023-05-09T07:37:31.629Z,95052.00
2023-05-09T07:38:31.624Z,95048.00
2023-05-09T07:39:31.690Z,95027.00
2023-05-09T07:40:31.643Z,95035.00
2023-05-09T07:41:32.057Z,95033.00
2023-05-09T07:42:31.616Z,95044.00
2023-05-09T07:43:31.601Z,95023.00
2023-05-09T07:44:31.588Z,95023.00
2023-05-09T07:45:31.632Z,95019.00
2023-05-09T07:46:32.074Z,95021.00
2023-05-09T07:47:31.594Z,95019.00
2023-05-09T07:48:31.589Z,95017.00
2023-05-09T07:49:31.722Z,95015.00
2023-05-09T07:50:31.586Z,95013.00
2023-05-09T07:51:32.052Z,95009.00
2023-05-09T07:52:31.547Z,95013.00
2023-05-09T07:53:31.537Z,95007.00
2023-05-09T07:54:31.517Z,95007.00
2023-05-09T07:55:31.521Z,95005.00
2023-05-09T07:56:31.579Z,95003.00
2023-05-09T07:57:31.568Z,94999.00
2023-05-09T07:58:31.534Z,95001.00
2023-05-09T07:59:31.506Z,95003.00
2023-05-09T08:00:31.496Z,95001.00
2023-05-09T08:01:31.502Z,95001.00
2023-05-09T08:02:31.532Z,95001.00
2023-05-09T08:03:31.609Z,94997.00
2023-05-09T08:04:31.500Z,94997.00
2023-05-09T08:05:31.561Z,94996.00
2023-05-09T08:06:31.481Z,94994.00
2023-05-09T08:07:31.450Z,94992.00
2023-05-09T08:08:31.437Z,94990.00
2023-05-09T08:09:31.424Z,94988.00
2023-05-09T08:10:31.378Z,94986.00
2023-05-09T08:11:31.399Z,94984.00
2023-05-09T08:12:32.016Z,94982.00
2023-05-09T08:13:31.650Z,94984.00
2023-05-09T08:14:31.401Z,94986.00
2023-05-09T08:15:31.396Z,94982.00
2023-05-09T08:16:31.383Z,94982.00
2023-05-09T08:17:31.421Z,94984.00
2023-05-09T08:18:31.445Z,94980.00
2023-05-09T08:19:31.345Z,94978.00
2023-05-09T08:20:31.429Z,94976.00
2023-05-09T08:21:31.458Z,94974.00
2023-05-09T08:22:31.374Z,94970.00
2023-05-09T08:23:31.408Z,94964.00
2023-05-09T08:24:31.454Z,94962.00
2023-05-09T08:25:31.582Z,94960.00
2023-05-09T08:26:32.294Z,94960.00
2023-05-09T08:27:32.610Z,94958.00
2023-05-09T08:28:32.572Z,94954.00
2023-05-09T08:29:31.756Z,94954.00
2023-05-09T08:30:33.060Z,94952.00
2023-05-09T08:31:31.855Z,94952.00
2023-05-09T08:32:31.780Z,94952.00
2023-05-09T08:33:31.808Z,94950.00
2023-05-09T08:34:31.782Z,94945.00
2023-05-09T08:35:31.852Z,94941.00
2023-05-09T08:36:31.821Z,94939.00
2023-05-09T08:37:31.991Z,94937.00
2023-05-09T08:38:31.910Z,94933.00
2023-05-09T08:39:31.952Z,94931.00
2023-05-09T08:40:31.950Z,94929.00
2023-05-09T08:41:32.086Z,94925.00
2023-05-09T08:42:32.018Z,94927.00
2023-05-09T08:43:32.181Z,94923.00
2023-05-09T08:44:32.646Z,94921.00
2023-05-09T08:45:32.138Z,94919.00
2023-05-09T08:46:32.266Z,94917.00
2023-05-09T08:47:32.262Z,94915.00
2023-05-09T08:48:34.028Z,94919.00
2023-05-09T08:49:32.272Z,94919.00
2023-05-09T08:50:32.275Z,94911.00
2023-05-09T08:51:33.483Z,94913.00
2023-05-09T08:52:32.312Z,94911.00
2023-05-09T08:53:32.377Z,94904.00
2023-05-09T08:54:32.557Z,94902.00
2023-05-09T08:55:32.584Z,94900.00
2023-05-09T08:56:32.299Z,94902.00
2023-05-09T08:57:32.238Z,94902.00
2023-05-09T08:58:34.149Z,94902.00
2023-05-09T08:59:32.645Z,94904.00
2023-05-09T09:00:32.210Z,94904.00
2023-05-09T09:01:32.229Z,94898.00
2023-05-09T09:02:32.275Z,94898.00
2023-05-09T09:03:32.237Z,94896.00
2023-05-09T09:04:32.225Z,94892.00
2023-05-09T09:05:41.426Z,94890.00
2023-05-09T09:06:33.200Z,94888.00
2023-05-09T09:07:32.282Z,94882.00
2023-05-09T09:08:32.176Z,94882.00
2023-05-09T09:09:32.301Z,94878.00
2023-05-09T09:10:32.685Z,94876.00
2023-05-09T09:11:32.111Z,94874.00
2023-05-09T09:12:32.114Z,94874.00
2023-05-09T09:13:32.246Z,94872.00
2023-05-09T09:14:32.264Z,94872.00
2023-05-09T09:15:32.128Z,94870.00
2023-05-09T09:16:32.710Z,94866.00
2023-05-09T09:17:32.195Z,94864.00
2023-05-09T09:18:32.210Z,94864.00
2023-05-09T09:19:32.283Z,94858.00
2023-05-09T09:20:32.304Z,94858.00
2023-05-09T09:21:32.337Z,94857.00
2023-05-09T09:22:32.384Z,94857.00
2023-05-09T09:23:32.424Z,94853.00
2023-05-09T09:24:32.605Z,94855.00
2023-05-09T09:25:32.649Z,94855.00
2023-05-09T09:26:32.608Z,94851.00
2023-05-09T09:27:32.615Z,94853.00
2023-05-09T09:28:32.671Z,94853.00
2023-05-09T09:29:32.741Z,94851.00
2023-05-09T09:30:32.793Z,94849.00
2023-05-09T09:31:33.174Z,94847.00
2023-05-09T09:32:33.083Z,94845.00
2023-05-09T09:33:32.906Z,94841.00
2023-05-09T09:34:32.984Z,94858.00
2023-05-09T09:35:32.972Z,94857.00
2023-05-09T09:36:33.155Z,94853.00
2023-05-09T09:37:33.021Z,94855.00
2023-05-09T09:38:33.045Z,94851.00
2023-05-09T09:39:33.106Z,94849.00
2023-05-09T09:40:33.247Z,94849.00
2023-05-09T09:41:33.187Z,94845.00
2023-05-09T09:42:33.183Z,94841.00
2023-05-09T09:43:33.261Z,94839.00
2023-05-09T09:44:33.680Z,94835.00
2023-05-09T09:45:33.278Z,94833.00
2023-05-09T09:46:33.365Z,94833.00
2023-05-09T09:47:33.676Z,94831.00
2023-05-09T09:48:33.389Z,94825.00
2023-05-09T09:49:33.398Z,94827.00
2023-05-09T09:50:33.497Z,94823.00
2023-05-09T09:51:33.510Z,94821.00
2023-05-09T09:52:33.445Z,94821.00
2023-05-09T09:53:33.447Z,94817.00
2023-05-09T09:54:33.453Z,94815.00
2023-05-09T09:55:33.445Z,94813.00
2023-05-09T09:56:33.485Z,94810.00
2023-05-09T09:57:33.561Z,94808.00
2023-05-09T09:58:33.476Z,94806.00
2023-05-09T09:59:33.489Z,94804.00
2023-05-09T10:00:33.498Z,94802.00
2023-05-09T10:01:33.584Z,94800.00
2023-05-09T10:02:33.553Z,94796.00
2023-05-09T10:03:33.550Z,94794.00
2023-05-09T10:04:33.515Z,94796.00
2023-05-09T10:05:33.580Z,94792.00
2023-05-09T10:06:33.595Z,94788.00
2023-05-09T10:07:33.594Z,94786.00
2023-05-09T10:08:33.625Z,94784.00
2023-05-09T10:09:33.617Z,94731.00
2023-05-09T10:10:33.639Z,94731.00
2023-05-09T10:11:34.143Z,94729.00
2023-05-09T10:12:33.660Z,94729.00
2023-05-09T10:13:33.765Z,94725.00
2023-05-09T10:14:35.128Z,94723.00
2023-05-09T10:15:45.123Z,94721.00
2023-05-09T10:16:43.787Z,94721.00
2023-05-09T10:17:34.844Z,94717.00
2023-05-09T10:18:33.906Z,94716.00
2023-05-09T10:19:33.715Z,94712.00
2023-05-09T10:20:33.686Z,94710.00
2023-05-09T10:21:33.638Z,94708.00
2023-05-09T10:22:33.652Z,94708.00
2023-05-09T10:23:33.653Z,94706.00
2023-05-09T10:24:33.625Z,94704.00
2023-05-09T10:25:33.632Z,94698.00
2023-05-09T10:26:33.634Z,94694.00
2023-05-09T10:27:33.628Z,94694.00
2023-05-09T10:28:33.588Z,94690.00
2023-05-09T10:29:33.675Z,94690.00
2023-05-09T10:30:34.082Z,94688.00
2023-05-09T10:31:33.591Z,94686.00
2023-05-09T10:32:33.611Z,94684.00
2023-05-09T10:33:33.568Z,94682.00
2023-05-09T10:34:33.579Z,94686.00
2023-05-09T10:35:33.546Z,94682.00
2023-05-09T10:36:33.553Z,94684.00
2023-05-09T10:37:33.706Z,94682.00
2023-05-09T10:38:33.530Z,94680.00
2023-05-09T10:39:33.521Z,94678.00
2023-05-09T10:40:33.531Z,94674.00
2023-05-09T10:41:33.519Z,94672.00
2023-05-09T10:42:33.533Z,94668.00
2023-05-09T10:43:34.779Z,94668.00
2023-05-09T10:44:33.663Z,94662.00
2023-05-09T10:45:33.753Z,94664.00
2023-05-09T10:46:33.718Z,94657.00
2023-05-09T10:47:33.745Z,94659.00
2023-05-09T10:48:33.730Z,94657.00
2023-05-09T10:49:35.532Z,94655.00
2023-05-09T10:50:33.729Z,94647.00
2023-05-09T10:51:33.717Z,94643.00
2023-05-09T10:52:33.712Z,94641.00
2023-05-09T10:53:33.711Z,94637.00
2023-05-09T10:54:33.744Z,94635.00
2023-05-09T10:55:33.740Z,94633.00
2023-05-09T10:56:33.671Z,94633.00
2023-05-09T10:57:33.685Z,94627.00
2023-05-09T10:58:33.761Z,94625.00
2023-05-09T10:59:33.656Z,94621.00
2023-05-09T11:00:33.676Z,94619.00
2023-05-09T11:01:33.784Z,94619.00
2023-05-09T11:02:33.635Z,94612.00
2023-05-09T11:03:33.668Z,94612.00
2023-05-09T11:04:33.617Z,94608.00
2023-05-09T11:05:33.630Z,94606.00
2023-05-09T11:06:33.590Z,94606.00
2023-05-09T11:07:33.606Z,94600.00
2023-05-09T11:08:33.606Z,94598.00
2023-05-09T11:09:33.644Z,94598.00
2023-05-09T11:10:33.561Z,94596.00
2023-05-09T11:11:33.557Z,94594.00
2023-05-09T11:12:33.585Z,94590.00
2023-05-09T11:13:33.693Z,94588.00
2023-05-09T11:14:33.563Z,94586.00
2023-05-09T11:15:33.572Z,94584.00
2023-05-09T11:16:33.566Z,94582.00
2023-05-09T11:17:33.755Z,94580.00
2023-05-09T11:18:33.513Z,94578.00
2023-05-09T11:19:33.550Z,94578.00
2023-05-09T11:20:33.704Z,94572.00
2023-05-09T11:21:33.542Z,94572.00
2023-05-09T11:22:33.652Z,94570.00
2023-05-09T11:23:33.657Z,94569.00
2023-05-09T11:24:33.688Z,94567.00
2023-05-09T11:25:33.495Z,94567.00
2023-05-09T11:26:33.484Z,94561.00
2023-05-09T11:27:33.480Z,94561.00
2023-05-09T11:28:33.477Z,94557.00
2023-05-09T11:29:33.487Z,94555.00
2023-05-09T11:30:33.507Z,94553.00
2023-05-09T11:31:33.555Z,94551.00
2023-05-09T11:32:33.444Z,94547.00
2023-05-09T11:33:33.429Z,94547.00
2023-05-09T11:34:33.431Z,94547.00
2023-05-09T11:35:33.442Z,94547.00
2023-05-09T11:36:33.584Z,94543.00
2023-05-09T11:37:33.466Z,94543.00
2023-05-09T11:38:33.438Z,94543.00
2023-05-09T11:39:33.383Z,94543.00
2023-05-09T11:40:33.472Z,94541.00
2023-05-09T11:41:33.367Z,94541.00
2023-05-09T11:42:33.359Z,94537.00
2023-05-09T11:43:33.341Z,94533.00
2023-05-09T11:44:33.437Z,94533.00